Flight Track Log - Related Links

Times and Time Zones

All times are in EST time to prevent confusion due to time zone crossing. See the PDT4314 flight status page for this flight to view local times or setup timezone preferences in your user account.

Time Position Orientation Groundspeed Altitude Reporting Facility
EST Latitude Longitude Course Direction KTS MPH feet Rate Location/Type
Mon 08:23:13 PM 42.1211 -76.0019 165° South 164 189 8,000  Level New York Center
Mon 08:24:15 PM 42.0667 -75.9736 159° South 199 229 8,000  Level New York Center
Mon 08:25:16 PM 41.9897 -75.9447 164° South 239 275 8,000  Level New York Center
Mon 08:26:00 PM 41.8324 -75.8570 180° South  Level Estimated
Mon 08:26:18 PM 41.9214 -75.9161 163° South 246 283 8,000  Level New York Center
Mon 08:27:00 PM 41.7793 -75.9062 215° Southwest  Level FlightAware Approximate
Mon 08:27:20 PM 41.8561 -75.8906 164° South 250 288 8,000  Level New York Center
Mon 08:28:21 PM 41.7867 -75.8631 164° South 251 289 8,000  Level New York Center
Mon 08:29:23 PM 41.7161 -75.8372 165° South 251 289 8,000  Level New York Center
Mon 08:30:25 PM 41.6467 -75.8108 164° South 250 288 8,000  Level New York Center
Mon 08:31:27 PM 41.5772 -75.7836 164° South 250 288 8,000  Level New York Center
Mon 08:32:28 PM 41.5194 -75.7603 163° South 249 287 8,000  Level New York Center
Mon 08:33:30 PM 41.4522 -75.7339 164° South 249 287 8,000  Level New York Center
Mon 08:34:32 PM 41.3850 -75.7089 164° South 249 287 8,000  Level New York Center
Mon 08:35:33 PM 41.3047 -75.6778 164° South 249 287 8,000  Level New York Center
Mon 08:36:35 PM 41.2369 -75.6503 163° South 249 287 8,000  Level New York Center
Mon 08:37:36 PM 41.1672 -75.6219 163° South 250 288 8,000  Level New York Center
Mon 08:38:38 PM 41.0967 -75.5953 164° South 250 288 8,000 -48 Level New York Center
Mon 08:39:40 PM 41.0314 -75.5769 168° South 250 288 7,900  Descending New York Center
Mon 08:40:41 PM 40.9569 -75.5764 180° South 247 284 8,000 49 Climbing New York Center
Mon 08:41:43 PM 40.8911 -75.5758 180° South 246 283 8,000  Level New York Center
Mon 08:42:45 PM 40.8200 -75.5750 179° South 246 283 8,000  Level New York Center
Mon 08:43:46 PM 40.7500 -75.5728 179° South 244 281 8,000 -244 Level New York Center
Mon 08:44:48 PM 40.6794 -75.5564 170° South 250 288 7,500 -581 Descending New York Center
Mon 08:45:50 PM 40.6086 -75.5556 179° South 254 292 6,800 -683 Descending New York Center
Mon 08:46:51 PM 40.5342 -75.5458 174° South 259 298 6,100 -683 Descending New York Center
Mon 08:47:53 PM 40.4736 -75.5003 150° Southeast 254 292 5,400 -537 Descending New York Center
Mon 08:48:54 PM 40.4094 -75.4547 152° Southeast 254 292 5,000 -195 Descending New York Center
Mon 08:49:56 PM 40.3478 -75.4103 151° Southeast 246 283 5,000  Level New York Center
Mon 08:50:58 PM 40.2869 -75.3664 151° Southeast 244 281 5,000 -98 Level New York Center
Mon 08:51:59 PM 40.2264 -75.3236 152° Southeast 240 276 4,800 -439 Descending New York Center
Mon 08:53:01 PM 40.1675 -75.2836 153° Southeast 244 281 4,100 -677 Descending New York Center
Mon 08:54:03 PM 40.1033 -75.2381 151° Southeast 244 281 3,400 -537 Descending New York Center
Mon 08:55:04 PM 40.0428 -75.1967 152° Southeast 245 282 3,000 -195 Descending New York Center
Mon 08:56:06 PM 39.9844 -75.1556 152° Southeast 241 277 3,000 -242 Level New York Center
Mon 08:57:08 PM 39.9275 -75.1467 173° South 203 234 2,500 -976 Descending New York Center
Mon 08:58:09 PM 39.8936 -75.1717 210° Southwest 148 170 1,000 -1,122 Descending New York Center
Mon 08:59:11 PM 39.8831 -75.2069 249° West 116 133 200 -774 Descending New York Center

Login

Don't have an account? Register now (free) for customized features, flight alerts, and more!